createdAt,value
2016-09-24T00:00:17.307Z,57.28
2016-09-24T00:01:17.289Z,57.47
2016-09-24T00:02:17.273Z,57.57
2016-09-24T00:03:17.257Z,57.47
2016-09-24T00:04:17.240Z,57.47
2016-09-24T00:05:17.223Z,57.28
2016-09-24T00:06:17.203Z,57.35
2016-09-24T00:07:17.193Z,57.54
2016-09-24T00:08:17.173Z,58.12
2016-09-24T00:09:17.159Z,57.47
2016-09-24T00:10:17.141Z,58.05
2016-09-24T00:11:17.128Z,57.83
2016-09-24T00:12:17.106Z,57.86
2016-09-24T00:13:17.088Z,57.83
2016-09-24T00:14:17.076Z,57.73
2016-09-24T00:15:17.056Z,57.83
2016-09-24T00:16:17.038Z,57.67
2016-09-24T00:17:17.036Z,57.92
2016-09-24T00:18:17.017Z,58.12
2016-09-24T00:19:16.990Z,57.92
2016-09-24T00:20:16.976Z,57.54
2016-09-24T00:21:16.960Z,57.64
2016-09-24T00:22:16.945Z,57.54
2016-09-24T00:23:16.927Z,57.73
2016-09-24T00:24:16.913Z,57.73
2016-09-24T00:25:16.892Z,57.83
2016-09-24T00:26:16.879Z,57.83
2016-09-24T00:27:16.855Z,57.64
2016-09-24T00:28:16.841Z,58.12
2016-09-24T00:29:16.831Z,58.22
2016-09-24T00:30:16.811Z,58.12
2016-09-24T00:31:16.794Z,57.83
2016-09-24T00:32:16.778Z,57.73
2016-09-24T00:33:16.756Z,58.22
2016-09-24T00:34:16.742Z,58.12
2016-09-24T00:35:16.727Z,57.92
2016-09-24T00:36:16.710Z,57.92
2016-09-24T00:37:16.695Z,58.02
2016-09-24T00:38:16.680Z,58.31
2016-09-24T00:39:16.661Z,58.12
2016-09-24T00:40:16.642Z,58.31
2016-09-24T00:41:16.630Z,57.73
2016-09-24T00:42:16.609Z,57.83
2016-09-24T00:43:16.592Z,58.12
2016-09-24T00:44:16.571Z,57.73
2016-09-24T00:45:16.558Z,57.73
2016-09-24T00:46:16.541Z,58.12
2016-09-24T00:47:16.522Z,58.12
2016-09-24T00:48:16.510Z,57.83
2016-09-24T00:49:16.493Z,57.73
2016-09-24T00:50:16.473Z,58.12
2016-09-24T00:51:16.459Z,58.22
2016-09-24T00:52:16.444Z,58.31
2016-09-24T00:53:16.426Z,57.92
2016-09-24T00:54:16.410Z,57.92
2016-09-24T00:55:16.393Z,57.83
2016-09-24T00:56:16.372Z,58.22
2016-09-24T00:57:16.364Z,57.92
2016-09-24T00:58:16.348Z,57.83
2016-09-24T00:59:16.325Z,58.02
2016-09-24T01:00:16.309Z,58.02
2016-09-24T01:01:16.289Z,57.92
2016-09-24T01:02:16.274Z,58.12
2016-09-24T01:03:16.257Z,57.92
2016-09-24T01:04:16.243Z,57.92
2016-09-24T01:05:16.228Z,57.73
2016-09-24T01:06:16.217Z,57.83
2016-09-24T01:07:16.190Z,58.12
2016-09-24T01:08:16.177Z,57.83
2016-09-24T01:09:16.165Z,58.4
2016-09-24T01:10:16.147Z,58.12
2016-09-24T01:11:16.125Z,57.92
2016-09-24T01:12:16.108Z,58.4
2016-09-24T01:13:16.095Z,58.22
2016-09-24T01:14:16.080Z,58.22
2016-09-24T01:15:16.065Z,57.73
2016-09-24T01:16:16.040Z,58.02
2016-09-24T01:17:16.025Z,57.54
2016-09-24T01:18:16.005Z,58.12
2016-09-24T01:19:15.994Z,57.54
2016-09-24T01:20:15.981Z,57.54
2016-09-24T01:21:15.958Z,58.12
2016-09-24T01:22:15.939Z,57.64
2016-09-24T01:23:15.930Z,58.12
2016-09-24T01:24:15.907Z,57.92
2016-09-24T01:25:15.894Z,58.02
2016-09-24T01:26:15.883Z,57.92
2016-09-24T01:27:15.860Z,57.73
2016-09-24T01:28:15.840Z,57.83
2016-09-24T01:29:15.826Z,57.64
2016-09-24T01:30:15.810Z,57.54
2016-09-24T01:31:15.789Z,57.92
2016-09-24T01:32:15.779Z,57.64
2016-09-24T01:33:15.761Z,57.83
2016-09-24T01:34:15.738Z,57.45
2016-09-24T01:35:15.724Z,57.83
2016-09-24T01:36:15.714Z,57.92
2016-09-24T01:37:15.692Z,58.18
2016-09-24T01:38:15.670Z,57.6
2016-09-24T01:39:15.656Z,57.64
2016-09-24T01:40:15.641Z,57.92
2016-09-24T01:41:15.623Z,57.92
2016-09-24T01:42:15.605Z,57.92
2016-09-24T01:43:15.601Z,58.22
2016-09-24T01:44:15.571Z,57.83
2016-09-24T01:45:15.559Z,57.83
2016-09-24T01:46:15.538Z,57.92
2016-09-24T01:47:15.521Z,57.7
2016-09-24T01:48:15.508Z,57.8
2016-09-24T01:49:15.484Z,57.9
2016-09-24T01:50:15.471Z,58.09
2016-09-24T01:51:15.455Z,58.09
2016-09-24T01:52:15.444Z,58.28
2016-09-24T01:53:15.425Z,57.9
2016-09-24T01:54:15.404Z,57.45
2016-09-24T01:55:15.388Z,57.45
2016-09-24T01:56:15.367Z,58.12
2016-09-24T01:57:15.356Z,57.8
2016-09-24T01:58:15.336Z,58.37
2016-09-24T01:59:15.328Z,57.8
2016-09-24T02:00:15.304Z,57.83
2016-09-24T02:01:15.289Z,57.8
2016-09-24T02:02:15.276Z,58.09
2016-09-24T02:03:15.252Z,57.99
2016-09-24T02:04:15.238Z,58.12
2016-09-24T02:05:15.223Z,57.83
2016-09-24T02:06:15.203Z,57.92
2016-09-24T02:07:15.187Z,57.54
2016-09-24T02:08:15.173Z,58.31
2016-09-24T02:09:15.152Z,57.73
2016-09-24T02:10:15.133Z,57.6
2016-09-24T02:11:15.119Z,57.8
2016-09-24T02:12:15.105Z,57.7
2016-09-24T02:13:15.082Z,57.6
2016-09-24T02:14:15.067Z,57.7
2016-09-24T02:15:15.051Z,57.51
2016-09-24T02:16:15.037Z,57.6
2016-09-24T02:17:15.023Z,57.42
2016-09-24T02:18:14.997Z,57.7
2016-09-24T02:19:14.982Z,57.7
2016-09-24T02:20:14.967Z,57.9
2016-09-24T02:21:14.657Z,57.8
2016-09-24T02:22:14.936Z,57.51
2016-09-24T02:23:14.916Z,57.92
2016-09-24T02:24:14.908Z,57.7
2016-09-24T02:25:14.887Z,57.8
2016-09-24T02:26:14.869Z,57.51
2016-09-24T02:27:14.843Z,57.99
2016-09-24T02:28:14.533Z,57.9
2016-09-24T02:29:14.813Z,58.02
2016-09-24T02:30:14.799Z,57.8
2016-09-24T02:31:14.785Z,57.8
2016-09-24T02:32:14.765Z,57.9
2016-09-24T02:33:14.747Z,57.99
2016-09-24T02:34:14.727Z,57.8
2016-09-24T02:35:14.712Z,57.7
2016-09-24T02:36:14.694Z,57.64
2016-09-24T02:37:14.676Z,57.9
2016-09-24T02:38:14.666Z,57.6
2016-09-24T02:39:14.647Z,57.42
2016-09-24T02:40:14.636Z,57.51
2016-09-24T02:41:14.626Z,57.45
2016-09-24T02:42:14.596Z,57.32
2016-09-24T02:43:14.577Z,57.64
2016-09-24T02:44:14.557Z,57.32
2016-09-24T02:45:14.542Z,57.32
2016-09-24T02:46:14.524Z,57.45
2016-09-24T02:47:14.508Z,57.6
2016-09-24T02:48:14.498Z,57.6
2016-09-24T02:49:14.475Z,56.84
2016-09-24T02:50:14.455Z,57.22
2016-09-24T02:51:14.446Z,57.42
2016-09-24T02:52:14.424Z,57.32
2016-09-24T02:53:14.408Z,57.03
2016-09-24T02:54:14.394Z,56.93
2016-09-24T02:55:14.373Z,57.22
2016-09-24T02:56:14.358Z,56.65
2016-09-24T02:57:14.337Z,57.03
2016-09-24T02:58:14.326Z,57.22
2016-09-24T02:59:14.310Z,57.22
2016-09-24T03:00:14.292Z,57.42
2016-09-24T03:01:14.275Z,57.51
2016-09-24T03:02:14.259Z,56.93
2016-09-24T03:03:14.247Z,57.22
2016-09-24T03:04:14.227Z,56.74
2016-09-24T03:05:14.208Z,57.03
2016-09-24T03:06:14.186Z,57.03
2016-09-24T03:07:14.169Z,57.22
2016-09-24T03:08:14.154Z,56.84
2016-09-24T03:09:14.140Z,57.13
2016-09-24T03:10:14.122Z,56.74
2016-09-24T03:11:14.099Z,56.84
2016-09-24T03:12:14.085Z,57.32
2016-09-24T03:13:14.074Z,56.65
2016-09-24T03:14:14.053Z,56.74
2016-09-24T03:15:14.036Z,57.13
2016-09-24T03:16:14.022Z,56.93
2016-09-24T03:17:13.996Z,57.03
2016-09-24T03:18:14.039Z,57.03
2016-09-24T03:19:13.962Z,56.65
2016-09-24T03:20:13.946Z,56.74
2016-09-24T03:21:13.630Z,56.93
2016-09-24T03:22:13.921Z,56.93
2016-09-24T03:23:13.896Z,57.6
2016-09-24T03:24:13.891Z,57.13
2016-09-24T03:25:13.869Z,56.84
2016-09-24T03:26:13.847Z,57.13
2016-09-24T03:27:13.830Z,56.93
2016-09-24T03:28:13.508Z,56.84
2016-09-24T03:29:13.799Z,57.03
2016-09-24T03:30:13.783Z,56.45
2016-09-24T03:31:13.762Z,56.55
2016-09-24T03:32:13.741Z,56.93
2016-09-24T03:33:13.735Z,56.93
2016-09-24T03:34:13.707Z,56.74
2016-09-24T03:35:13.693Z,57.42
2016-09-24T03:36:13.374Z,57.6
2016-09-24T03:37:13.659Z,57.7
2016-09-24T03:38:13.646Z,57.13
2016-09-24T03:39:13.623Z,57.22
2016-09-24T03:40:13.308Z,56.93
2016-09-24T03:41:13.595Z,57.13
2016-09-24T03:42:13.574Z,57.13
2016-09-24T03:43:13.556Z,56.93
2016-09-24T03:44:13.539Z,57.42
2016-09-24T03:45:13.524Z,57.51
2016-09-24T03:46:13.514Z,57.7
2016-09-24T03:47:13.492Z,57.7
2016-09-24T03:48:13.476Z,57.51
2016-09-24T03:49:13.159Z,57.6
2016-09-24T03:50:13.443Z,57.42
2016-09-24T03:51:13.133Z,57.32
2016-09-24T03:52:13.418Z,57.22
2016-09-24T03:53:13.386Z,57.03
2016-09-24T03:54:13.370Z,57.42
2016-09-24T03:55:13.362Z,57.32
2016-09-24T03:56:13.336Z,57.6
2016-09-24T03:57:13.322Z,57.32
2016-09-24T03:58:13.304Z,57.6
2016-09-24T03:59:13.285Z,57.32
2016-09-24T04:00:13.280Z,57.42
2016-09-24T04:01:13.257Z,57.6
2016-09-24T04:02:13.245Z,57.32
2016-09-24T04:03:13.216Z,57.6
2016-09-24T04:04:13.205Z,57.22
2016-09-24T04:05:13.183Z,57.51
2016-09-24T04:06:13.166Z,57.32
2016-09-24T04:07:13.153Z,57.42
2016-09-24T04:08:13.132Z,57.51
2016-09-24T04:09:12.829Z,57.22
2016-09-24T04:10:13.099Z,57.51
2016-09-24T04:11:13.080Z,57.8
2016-09-24T04:12:12.759Z,57.7
2016-09-24T04:13:13.041Z,57.42
2016-09-24T04:14:13.034Z,57.42
2016-09-24T04:15:13.013Z,57.32
2016-09-24T04:16:12.992Z,57.32
2016-09-24T04:17:12.978Z,57.6
2016-09-24T04:18:12.961Z,57.32
2016-09-24T04:19:12.938Z,57.32
2016-09-24T04:20:12.922Z,57.32
2016-09-24T04:21:12.910Z,57.51
2016-09-24T04:22:12.892Z,57.42
2016-09-24T04:23:12.875Z,57.7
2016-09-24T04:24:12.555Z,57.22
2016-09-24T04:25:12.843Z,57.51
2016-09-24T04:26:12.523Z,57.51
2016-09-24T04:27:12.802Z,57.99
2016-09-24T04:28:12.787Z,57.42
2016-09-24T04:29:12.773Z,57.7
2016-09-24T04:30:12.750Z,57.99
2016-09-24T04:31:12.433Z,57.6
2016-09-24T04:32:12.725Z,57.32
2016-09-24T04:33:12.403Z,57.32
2016-09-24T04:34:12.687Z,57.32
2016-09-24T04:35:12.683Z,57.51
2016-09-24T04:36:12.651Z,57.32
2016-09-24T04:37:12.637Z,57.51
2016-09-24T04:38:12.619Z,57.42
2016-09-24T04:39:12.602Z,57.42
2016-09-24T04:40:12.584Z,57.51
2016-09-24T04:41:12.569Z,57.51
2016-09-24T04:42:12.250Z,57.42
2016-09-24T04:43:12.538Z,57.32
2016-09-24T04:44:12.523Z,57.8
2016-09-24T04:45:12.498Z,57.7
2016-09-24T04:46:12.484Z,57.51
2016-09-24T04:47:12.465Z,58.18
2016-09-24T04:48:12.448Z,58.09
2016-09-24T04:49:12.688Z,57.8
2016-09-24T04:50:12.413Z,57.7
2016-09-24T04:51:12.398Z,57.8
2016-09-24T04:52:12.377Z,57.8
2016-09-24T04:53:12.363Z,57.8
2016-09-24T04:54:12.347Z,57.8
2016-09-24T04:55:12.331Z,57.99
2016-09-24T04:56:12.323Z,57.99
2016-09-24T04:57:12.296Z,57.7
2016-09-24T04:58:12.279Z,57.9
2016-09-24T04:59:12.258Z,57.6
2016-09-24T05:00:12.241Z,57.8
2016-09-24T05:01:12.225Z,57.9
2016-09-24T05:02:12.208Z,57.9
2016-09-24T05:03:12.185Z,57.7
2016-09-24T05:04:12.170Z,57.6
2016-09-24T05:05:12.160Z,58.09
2016-09-24T05:06:11.833Z,57.58
2016-09-24T05:07:12.132Z,57.6
2016-09-24T05:08:12.107Z,58.09
2016-09-24T05:09:11.791Z,58.09
2016-09-24T05:10:12.074Z,57.9
2016-09-24T05:11:12.049Z,57.51
2016-09-24T05:12:12.036Z,57.7
2016-09-24T05:13:12.013Z,57.8
2016-09-24T05:14:11.995Z,57.51
2016-09-24T05:15:11.988Z,57.6
2016-09-24T05:16:11.969Z,57.6
2016-09-24T05:17:11.947Z,57.9
2016-09-24T05:18:11.933Z,57.7
2016-09-24T05:19:11.913Z,58.06
2016-09-24T05:20:11.898Z,57.99
2016-09-24T05:21:11.880Z,57.6
2016-09-24T05:22:11.860Z,57.9
2016-09-24T05:23:11.845Z,57.87
2016-09-24T05:24:11.834Z,57.58
2016-09-24T05:25:11.817Z,57.7
2016-09-24T05:26:11.804Z,57.6
2016-09-24T05:27:11.776Z,57.9
2016-09-24T05:28:11.761Z,57.97
2016-09-24T05:29:11.743Z,57.77
2016-09-24T05:30:11.730Z,57.9
2016-09-24T05:31:11.707Z,57.39
2016-09-24T05:32:11.692Z,57.77
2016-09-24T05:33:11.673Z,57.77
2016-09-24T05:34:11.656Z,58.15
2016-09-24T05:35:11.638Z,57.97
2016-09-24T05:36:11.623Z,58.06
2016-09-24T05:37:11.303Z,58.15
2016-09-24T05:38:11.589Z,57.77
2016-09-24T05:39:11.573Z,57.77
2016-09-24T05:40:11.552Z,57.87
2016-09-24T05:41:11.541Z,57.68
2016-09-24T05:42:11.523Z,58.35
2016-09-24T05:43:11.503Z,57.77
2016-09-24T05:44:11.487Z,57.87
2016-09-24T05:45:11.479Z,57.77
2016-09-24T05:46:11.450Z,57.48
2016-09-24T05:47:11.431Z,57.58
2016-09-24T05:48:11.116Z,57.97
2016-09-24T05:49:11.401Z,57.97
2016-09-24T05:50:11.381Z,57.39
2016-09-24T05:51:11.371Z,57.68
2016-09-24T05:52:11.350Z,57.99
2016-09-24T05:53:11.333Z,57.77
2016-09-24T05:54:11.312Z,58.06
2016-09-24T05:55:11.296Z,58.15
2016-09-24T05:56:10.978Z,57.87
2016-09-24T05:57:10.964Z,58.06
2016-09-24T05:58:11.242Z,58.54
2016-09-24T05:59:11.235Z,57.77
2016-09-24T06:00:11.212Z,57.97
2016-09-24T06:01:11.191Z,57.8
2016-09-24T06:02:11.174Z,57.7
2016-09-24T06:03:11.160Z,57.6
2016-09-24T06:04:11.143Z,57.8
2016-09-24T06:05:10.819Z,57.7
2016-09-24T06:06:11.116Z,57.42
2016-09-24T06:07:11.093Z,58.15
2016-09-24T06:08:11.070Z,57.8
2016-09-24T06:09:11.056Z,57.8
2016-09-24T06:10:11.040Z,58.18
2016-09-24T06:11:11.025Z,57.68
2016-09-24T06:12:11.007Z,57.7
2016-09-24T06:13:11.144Z,58.09
2016-09-24T06:14:10.972Z,57.9
2016-09-24T06:15:10.946Z,57.7
2016-09-24T06:16:10.932Z,57.9
2016-09-24T06:17:10.921Z,58.37
2016-09-24T06:18:10.899Z,57.8
2016-09-24T06:19:10.885Z,57.97
2016-09-24T06:20:10.873Z,57.8
2016-09-24T06:21:10.853Z,57.99
2016-09-24T06:22:10.833Z,57.8
2016-09-24T06:23:10.814Z,57.9
2016-09-24T06:24:10.800Z,57.9
2016-09-24T06:25:10.779Z,58.09
2016-09-24T06:26:10.762Z,57.7
2016-09-24T06:27:10.443Z,57.9
2016-09-24T06:28:10.729Z,58.18
2016-09-24T06:29:10.713Z,57.8
2016-09-24T06:30:10.692Z,57.8
2016-09-24T06:31:10.674Z,57.8
2016-09-24T06:32:10.658Z,58.09
2016-09-24T06:33:10.644Z,57.9
2016-09-24T06:34:10.623Z,58.09
2016-09-24T06:35:10.607Z,57.7
2016-09-24T06:36:10.588Z,57.9
2016-09-24T06:37:10.574Z,57.8
2016-09-24T06:38:10.558Z,57.7
2016-09-24T06:39:10.547Z,57.8
2016-09-24T06:40:10.524Z,57.9
2016-09-24T06:41:10.501Z,57.8
2016-09-24T06:42:10.488Z,58.09
2016-09-24T06:43:10.467Z,57.42
2016-09-24T06:44:10.461Z,57.99
2016-09-24T06:45:10.136Z,58.09
2016-09-24T06:46:10.420Z,57.6
2016-09-24T06:47:10.402Z,57.6
2016-09-24T06:48:10.389Z,58.09
2016-09-24T06:49:10.364Z,57.51
2016-09-24T06:50:10.351Z,58.09
2016-09-24T06:51:10.330Z,57.9
2016-09-24T06:52:10.316Z,57.42
2016-09-24T06:53:10.298Z,57.8
2016-09-24T06:54:09.978Z,57.6
2016-09-24T06:55:10.267Z,57.51
2016-09-24T06:56:10.245Z,57.99
2016-09-24T06:57:10.229Z,57.51
2016-09-24T06:58:10.215Z,57.7
2016-09-24T06:59:10.201Z,57.9
2016-09-24T07:00:10.178Z,57.8
2016-09-24T07:01:10.161Z,57.8
2016-09-24T07:02:10.141Z,57.51
2016-09-24T07:03:10.130Z,57.42
2016-09-24T07:04:10.114Z,58.02
2016-09-24T07:05:09.997Z,57.25
2016-09-24T07:06:10.077Z,57.35
2016-09-24T07:07:09.765Z,57.51
2016-09-24T07:08:09.738Z,57.32
2016-09-24T07:09:10.020Z,57.99
2016-09-24T07:10:10.003Z,57.8
2016-09-24T07:11:09.987Z,57.51
2016-09-24T07:12:09.971Z,57.51
2016-09-24T07:13:09.954Z,57.8
2016-09-24T07:14:09.938Z,57.6
2016-09-24T07:15:09.921Z,57.51
2016-09-24T07:16:09.903Z,57.6
2016-09-24T07:17:09.893Z,57.7
2016-09-24T07:18:09.873Z,57.51
2016-09-24T07:19:09.859Z,57.6
2016-09-24T07:20:09.538Z,57.42
2016-09-24T07:21:09.823Z,57.42
2016-09-24T07:22:09.506Z,57.8
2016-09-24T07:23:09.794Z,57.42
2016-09-24T07:24:09.764Z,57.42
2016-09-24T07:25:09.925Z,57.42
2016-09-24T07:26:09.730Z,57.7
2016-09-24T07:27:09.716Z,57.51
2016-09-24T07:28:09.698Z,57.9
2016-09-24T07:29:09.682Z,57.51
2016-09-24T07:30:09.664Z,57.6
2016-09-24T07:31:09.648Z,57.99
2016-09-24T07:32:09.625Z,57.8
2016-09-24T07:33:09.315Z,57.7
2016-09-24T07:34:09.599Z,57.8
2016-09-24T07:35:09.580Z,57.6
2016-09-24T07:36:09.561Z,57.9
2016-09-24T07:37:09.243Z,57.7
2016-09-24T07:38:09.526Z,57.7
2016-09-24T07:39:09.520Z,57.6
2016-09-24T07:40:09.493Z,57.6
2016-09-24T07:41:09.470Z,57.6
2016-09-24T07:42:09.462Z,57.51
2016-09-24T07:43:09.442Z,57.6
2016-09-24T07:44:09.422Z,57.7
2016-09-24T07:45:09.408Z,57.42
2016-09-24T07:46:09.390Z,57.7
2016-09-24T07:47:09.375Z,57.99
2016-09-24T07:48:09.362Z,57.7
2016-09-24T07:49:09.039Z,57.6
2016-09-24T07:50:09.023Z,57.6
2016-09-24T07:51:09.304Z,58.09
2016-09-24T07:52:09.293Z,57.9
2016-09-24T07:53:09.279Z,58.09
2016-09-24T07:54:09.248Z,57.9
2016-09-24T07:55:09.240Z,57.6
2016-09-24T07:56:09.220Z,57.64
2016-09-24T07:57:09.199Z,57.64
2016-09-24T07:58:09.184Z,57.73
2016-09-24T07:59:09.164Z,57.54
2016-09-24T08:00:09.150Z,58.02
2016-09-24T08:01:09.140Z,57.83
2016-09-24T08:02:09.117Z,57.45
2016-09-24T08:03:09.105Z,57.73
2016-09-24T08:04:08.783Z,57.6
2016-09-24T08:05:09.065Z,57.64
2016-09-24T08:06:09.057Z,57.73
2016-09-24T08:07:09.031Z,57.83
2016-09-24T08:08:09.013Z,58.12
2016-09-24T08:09:09.001Z,58.02
2016-09-24T08:10:08.983Z,58.12
2016-09-24T08:11:08.963Z,57.83
2016-09-24T08:12:08.949Z,57.45
2016-09-24T08:13:08.931Z,57.64
2016-09-24T08:14:08.912Z,57.92
2016-09-24T08:15:08.893Z,57.45
2016-09-24T08:16:09.174Z,57.54
2016-09-24T08:17:08.874Z,57.99
2016-09-24T08:18:08.847Z,57.83
2016-09-24T08:19:08.830Z,57.6
2016-09-24T08:20:08.806Z,57.45
2016-09-24T08:21:08.493Z,58.4
2016-09-24T08:22:08.776Z,58.31
2016-09-24T08:23:08.762Z,58.5
2016-09-24T08:24:08.439Z,58.22
2016-09-24T08:25:08.726Z,58.6
2016-09-24T08:26:08.710Z,58.7
2016-09-24T08:27:08.693Z,58.31
2016-09-24T08:28:08.680Z,58.22
2016-09-24T08:29:08.661Z,58.31
2016-09-24T08:30:08.640Z,58.5
2016-09-24T08:31:08.625Z,58.7
2016-09-24T08:32:08.608Z,59.3
2016-09-24T08:33:08.589Z,58.92
2016-09-24T08:34:08.572Z,59.01
2016-09-24T08:35:08.560Z,58.63
2016-09-24T08:36:08.538Z,58.63
2016-09-24T08:37:08.221Z,58.72
2016-09-24T08:38:08.509Z,58.63
2016-09-24T08:39:08.486Z,58.53
2016-09-24T08:40:08.167Z,58.63
2016-09-24T08:41:08.155Z,58.63
2016-09-24T08:42:08.434Z,58.63
2016-09-24T08:43:08.123Z,58.53
2016-09-24T08:44:08.404Z,58.63
2016-09-24T08:45:08.381Z,58.24
2016-09-24T08:46:08.370Z,58.34
2016-09-24T08:47:08.348Z,58.63
2016-09-24T08:48:08.332Z,58.34
2016-09-24T08:49:08.316Z,58.15
2016-09-24T08:50:08.303Z,58.15
2016-09-24T08:51:08.294Z,58.12
2016-09-24T08:52:08.270Z,58.02
2016-09-24T08:53:08.247Z,58.12
2016-09-24T08:54:08.238Z,58.4
2016-09-24T08:55:08.215Z,58.7
2016-09-24T08:56:07.905Z,58.4
2016-09-24T08:57:08.176Z,58.31
2016-09-24T08:58:08.163Z,58.22
2016-09-24T08:59:08.149Z,58.6
2016-09-24T09:00:08.131Z,58.22
2016-09-24T09:01:08.112Z,58.34
2016-09-24T09:02:08.098Z,58.24
2016-09-24T09:03:08.083Z,58.44
2016-09-24T09:04:08.061Z,58.82
2016-09-24T09:05:08.043Z,58.82
2016-09-24T09:06:08.031Z,58.24
2016-09-24T09:07:08.010Z,58.72
2016-09-24T09:08:07.995Z,58.24
2016-09-24T09:09:07.973Z,58.72
2016-09-24T09:10:07.961Z,58.63
2016-09-24T09:11:07.952Z,58.72
2016-09-24T09:12:07.929Z,58.53
2016-09-24T09:13:07.909Z,58.34
2016-09-24T09:14:07.890Z,58.63
2016-09-24T09:15:07.878Z,58.34
2016-09-24T09:16:07.859Z,58.44
2016-09-24T09:17:07.841Z,58.63
2016-09-24T09:18:07.823Z,59.11
2016-09-24T09:19:07.804Z,58.63
2016-09-24T09:20:07.793Z,58.53
2016-09-24T09:21:07.772Z,58.72
2016-09-24T09:22:07.757Z,58.63
2016-09-24T09:23:07.737Z,58.72
2016-09-24T09:24:07.421Z,58.44
2016-09-24T09:25:07.705Z,58.24
2016-09-24T09:26:07.688Z,58.63
2016-09-24T09:27:07.677Z,58.92
2016-09-24T09:28:07.656Z,58.79
2016-09-24T09:29:07.636Z,59.27
2016-09-24T09:30:07.623Z,59.01
2016-09-24T09:31:07.600Z,58.79
2016-09-24T09:32:07.589Z,59.11
2016-09-24T09:33:07.577Z,59.88
2016-09-24T09:34:07.565Z,59.17
2016-09-24T09:35:07.534Z,59.17
2016-09-24T09:36:07.522Z,59.17
2016-09-24T09:37:07.497Z,59.4
2016-09-24T09:38:07.182Z,59.11
2016-09-24T09:39:07.468Z,59.4
2016-09-24T09:40:07.450Z,58.82
2016-09-24T09:41:07.438Z,58.63
2016-09-24T09:42:07.421Z,58.63
2016-09-24T09:43:07.402Z,58.72
2016-09-24T09:44:07.382Z,59.01
2016-09-24T09:45:07.366Z,58.63
2016-09-24T09:46:07.350Z,58.24
2016-09-24T09:47:07.336Z,58.34
2016-09-24T09:48:07.316Z,58.63
2016-09-24T09:49:07.296Z,58.15
2016-09-24T09:50:07.294Z,58.34
2016-09-24T09:51:07.263Z,58.53
2016-09-24T09:52:07.260Z,58.56
2016-09-24T09:53:07.226Z,58.56
2016-09-24T09:54:07.212Z,58.56
2016-09-24T09:55:07.203Z,58.47
2016-09-24T09:56:07.182Z,58.65
2016-09-24T09:57:07.173Z,58.82
2016-09-24T09:58:07.150Z,58.82
2016-09-24T09:59:07.131Z,58.75
2016-09-24T10:00:07.111Z,58.24
2016-09-24T10:01:07.104Z,58.47
2016-09-24T10:02:07.075Z,58.56
2016-09-24T10:03:07.057Z,58.85
2016-09-24T10:04:07.043Z,58.85
2016-09-24T10:05:07.024Z,58.27
2016-09-24T10:06:07.008Z,58.65
2016-09-24T10:07:07.001Z,58.37
2016-09-24T10:08:06.977Z,58.85
2016-09-24T10:09:06.961Z,58.37
2016-09-24T10:10:06.640Z,58.56
2016-09-24T10:11:06.936Z,58.37
2016-09-24T10:12:06.911Z,58.08
2016-09-24T10:13:06.886Z,58.17
2016-09-24T10:14:06.878Z,57.69
2016-09-24T10:15:06.858Z,57.98
2016-09-24T10:16:06.844Z,58.27
2016-09-24T10:17:06.821Z,58.37
2016-09-24T10:18:06.810Z,57.98
2016-09-24T10:19:06.793Z,58.08
2016-09-24T10:20:06.767Z,58.47
2016-09-24T10:21:06.757Z,58.17
2016-09-24T10:22:06.439Z,58.17
2016-09-24T10:23:06.719Z,58.17
2016-09-24T10:24:06.701Z,58.17
2016-09-24T10:25:06.686Z,58.17
2016-09-24T10:26:06.683Z,57.98
2016-09-24T10:27:06.656Z,57.98
2016-09-24T10:28:06.638Z,57.89
2016-09-24T10:29:06.621Z,57.69
2016-09-24T10:30:06.599Z,57.72
2016-09-24T10:31:06.587Z,57.79
2016-09-24T10:32:06.574Z,57.82
2016-09-24T10:33:06.572Z,57.62
2016-09-24T10:34:06.535Z,57.62
2016-09-24T10:35:06.514Z,57.72
2016-09-24T10:36:06.502Z,57.92
2016-09-24T10:37:06.482Z,57.5
2016-09-24T10:38:06.470Z,57.69
2016-09-24T10:39:06.446Z,57.14
2016-09-24T10:40:06.435Z,57.05
2016-09-24T10:41:06.421Z,57.62
2016-09-24T10:42:06.405Z,57.62
2016-09-24T10:43:06.383Z,57.72
2016-09-24T10:44:06.365Z,57.72
2016-09-24T10:45:06.349Z,57.62
2016-09-24T10:46:06.330Z,57.82
2016-09-24T10:47:06.017Z,57.34
2016-09-24T10:48:06.306Z,57.43
2016-09-24T10:49:06.284Z,57.53
2016-09-24T10:50:06.263Z,57.53
2016-09-24T10:51:06.251Z,57.53
2016-09-24T10:52:05.931Z,57.43
2016-09-24T10:53:06.216Z,57.43
2016-09-24T10:54:06.199Z,57.43
2016-09-24T10:55:06.187Z,57.53
2016-09-24T10:56:06.166Z,57.34
2016-09-24T10:57:06.154Z,57.53
2016-09-24T10:58:06.135Z,57.62
2016-09-24T10:59:06.109Z,57.43
2016-09-24T11:00:06.097Z,57.72
2016-09-24T11:01:06.078Z,57.82
2016-09-24T11:02:06.068Z,57.72
2016-09-24T11:03:06.049Z,57.34
2016-09-24T11:04:06.029Z,57.62
2016-09-24T11:05:06.032Z,57.34
2016-09-24T11:06:06.003Z,57.72
2016-09-24T11:07:06.009Z,57.53
2016-09-24T11:08:05.968Z,57.72
2016-09-24T11:09:05.943Z,57.72
2016-09-24T11:10:05.930Z,57.53
2016-09-24T11:11:05.913Z,57.62
2016-09-24T11:12:05.896Z,57.53
2016-09-24T11:13:05.882Z,57.53
2016-09-24T11:14:05.861Z,57.53
2016-09-24T11:15:05.858Z,57.43
2016-09-24T11:16:05.825Z,57.62
2016-09-24T11:17:05.817Z,57.62
2016-09-24T11:18:05.817Z,57.43
2016-09-24T11:19:05.799Z,57.46
2016-09-24T11:20:05.774Z,57.82
2016-09-24T11:21:05.756Z,57.46
2016-09-24T11:22:05.737Z,57.62
2016-09-24T11:23:05.723Z,57.34
2016-09-24T11:24:05.699Z,57.53
2016-09-24T11:25:05.691Z,57.62
2016-09-24T11:26:05.665Z,57.34
2016-09-24T11:27:05.650Z,57.53
2016-09-24T11:28:05.632Z,57.46
2016-09-24T11:29:05.616Z,57.65
2016-09-24T11:30:05.296Z,57.65
2016-09-24T11:31:05.580Z,57.43
2016-09-24T11:32:05.565Z,57.65
2016-09-24T11:33:05.549Z,57.62
2016-09-24T11:34:05.529Z,57.85
2016-09-24T11:35:05.517Z,57.65
2016-09-24T11:36:05.494Z,57.75
2016-09-24T11:37:05.481Z,57.46
2016-09-24T11:38:05.463Z,57.27
2016-09-24T11:39:05.446Z,57.56
2016-09-24T11:40:05.445Z,57.46
2016-09-24T11:41:05.424Z,57.65
2016-09-24T11:42:05.417Z,57.56
2016-09-24T11:43:05.382Z,57.46
2016-09-24T11:44:05.377Z,57.46
2016-09-24T11:45:05.046Z,57.65
2016-09-24T11:46:05.330Z,57.56
2016-09-24T11:47:05.314Z,57.46
2016-09-24T11:48:05.298Z,57.56
2016-09-24T11:49:05.285Z,57.85
2016-09-24T11:50:05.263Z,58.33
2016-09-24T11:51:05.255Z,58.14
2016-09-24T11:52:05.234Z,57.85
2016-09-24T11:53:05.224Z,57.94
2016-09-24T11:54:05.201Z,58.04
2016-09-24T11:55:05.189Z,58.04
2016-09-24T11:56:05.167Z,58.14
2016-09-24T11:57:05.152Z,57.65
2016-09-24T11:58:05.141Z,57.46
2016-09-24T11:59:04.820Z,57.56
2016-09-24T12:00:05.104Z,57.75
2016-09-24T12:01:05.086Z,57.65
2016-09-24T12:02:05.076Z,57.46
2016-09-24T12:03:05.049Z,57.37
2016-09-24T12:04:04.738Z,57.56
2016-09-24T12:05:05.017Z,57.46
2016-09-24T12:06:05.008Z,57.56
2016-09-24T12:07:04.992Z,57.75
2016-09-24T12:08:04.981Z,57.75
2016-09-24T12:09:04.958Z,57.75
2016-09-24T12:10:04.943Z,57.75
2016-09-24T12:11:04.924Z,57.75
2016-09-24T12:12:04.910Z,57.56
2016-09-24T12:13:04.894Z,57.56
2016-09-24T12:14:04.881Z,57.65
2016-09-24T12:15:04.855Z,57.75
2016-09-24T12:16:04.849Z,57.27
2016-09-24T12:17:04.820Z,57.46
2016-09-24T12:18:04.811Z,57.37
2016-09-24T12:19:04.797Z,57.27
2016-09-24T12:20:04.773Z,56.98
2016-09-24T12:21:04.769Z,57.17
2016-09-24T12:22:04.749Z,57.37
2016-09-24T12:23:04.727Z,56.98
2016-09-24T12:24:04.714Z,57.46
2016-09-24T12:25:04.699Z,57.65
2016-09-24T12:26:04.677Z,58.26
2016-09-24T12:27:04.661Z,57.94
2016-09-24T12:28:04.647Z,57.75
2016-09-24T12:29:04.638Z,58.14
2016-09-24T12:30:04.617Z,57.75
2016-09-24T12:31:04.315Z,58.42
2016-09-24T12:32:04.583Z,58.72
2016-09-24T12:33:04.578Z,58.81
2016-09-24T12:34:04.554Z,58.42
2016-09-24T12:35:04.529Z,58.52
2016-09-24T12:36:04.510Z,58.33
2016-09-24T12:37:04.502Z,58.45
2016-09-24T12:38:04.493Z,58.55
2016-09-24T12:39:04.169Z,58.62
2016-09-24T12:40:04.441Z,58.75
2016-09-24T12:41:04.430Z,58.91
2016-09-24T12:42:04.415Z,58.65
2016-09-24T12:43:04.413Z,58.26
2016-09-24T12:44:04.384Z,57.85
2016-09-24T12:45:04.367Z,58.07
2016-09-24T12:46:04.348Z,57.68
2016-09-24T12:47:04.349Z,57.87
2016-09-24T12:48:04.321Z,57.59
2016-09-24T12:49:04.305Z,57.59
2016-09-24T12:50:04.291Z,57.87
2016-09-24T12:51:04.281Z,57.97
2016-09-24T12:52:04.262Z,58.07
2016-09-24T12:53:04.239Z,57.68
2016-09-24T12:54:04.221Z,57.87
2016-09-24T12:55:04.206Z,58.26
2016-09-24T12:56:04.188Z,57.97
2016-09-24T12:57:03.873Z,57.87